Jacqueline C — 2BON5 — position and weather

sailwx.info

Track history (hours):
 
Tides and Currents Weather Stations Pressure Air Temp Water Temp Dewpoint Dewpoint Depression Visibility Wind Speed Wind Dir Waves Ship Positions

Jacqueline C

Last reported at 2017-Nov-10 03:26 UTC. Time now 2017-Nov-20 07:54 UTC.
Position N 45°32' W 073°32'.
Warning: this ship's position is 10 days out of date.

Length 138 m; draft 6.2 m.

Type: Ship. MMSI: 235067944.

Date/timePositionNaut miles runAvg speedWind from/ knotsBaromVisibWave heightAir tempDewpointWater temp
2017-Nov-10 03:26N 45°32' W 073°32'2 2.4
2017-Nov-10 02:26N 45°30' W 073°31'2 3.8
2017-Nov-10 02:00N 45°28' W 073°30'4 6.8
2017-Nov-10 01:29N 45°25' W 073°32'2 3.6
2017-Nov-10 01:00N 45°24' W 073°34'1 1.8
2017-Nov-10 00:30N 45°24' W 073°35'3 6.5
2017-Nov-10 00:00N 45°25' W 073°40'3 6.8
2017-Nov-09 23:31N 45°24' W 073°45'713.1
2017-Nov-09 23:00N 45°21' W 073°53'3 5.1
2017-Nov-09 22:31N 45°19' W 073°55'1 1.7
2017-Nov-09 22:00N 45°18' W 073°56'1 1.3
2017-Nov-09 21:30N 45°18' W 073°56'3 5.4
2017-Nov-09 20:56N 45°15' W 073°58'5 6.9
2017-Nov-09 20:13N 45°13' W 074°05'  
2017-Nov-07 07:04N 45°13' W 074°04'1 7.0
2017-Nov-07 07:00N 45°13' W 074°03'4 8.5
2017-Nov-07 06:30N 45°15' W 073°58'3 6.9
2017-Nov-07 06:00N 45°18' W 073°56'0 0.4
2017-Nov-07 05:31N 45°18' W 073°55'1 1.3
2017-Nov-07 05:00N 45°19' W 073°55'0 0.9
2017-Nov-07 04:30N 45°19' W 073°55'0 0.7
2017-Nov-07 04:00N 45°20' W 073°55'2 3.9
2017-Nov-07 03:30N 45°21' W 073°52'3 6.1
2017-Nov-07 03:00N 45°23' W 073°49'4 7.1
2017-Nov-07 02:30N 45°24' W 073°44'3 6.9
2017-Nov-07 02:00N 45°25' W 073°39'3 5.3
2017-Nov-07 01:27N 45°24' W 073°35'3 2.3
2017-Nov-07 00:21N 45°25' W 073°32'3 6.6
2017-Nov-06 23:56N 45°27' W 073°30'  
Track history (hours):
 
Tides and Currents Weather Stations Pressure Air Temp Water Temp Dewpoint Dewpoint Depression Visibility Wind Speed Wind Dir Waves Ship Positions

Jacqueline C

Last reported at 2017-Nov-10 03:26 UTC. Time now 2017-Nov-20 07:54 UTC.
Position N 45°32' W 073°32'.
Warning: this ship's position is 10 days out of date.

Length 138 m; draft 6.2 m.

Type: Ship. MMSI: 235067944.

Date/timePositionNaut miles runAvg speedWind from/ knotsBaromVisibWave heightAir tempDewpointWater temp
2017-Nov-10 03:26N 45°32' W 073°32'2 2.4
2017-Nov-10 02:26N 45°30' W 073°31'2 3.8
2017-Nov-10 02:00N 45°28' W 073°30'4 6.8
2017-Nov-10 01:29N 45°25' W 073°32'2 3.6
2017-Nov-10 01:00N 45°24' W 073°34'1 1.8
2017-Nov-10 00:30N 45°24' W 073°35'3 6.5
2017-Nov-10 00:00N 45°25' W 073°40'3 6.8
2017-Nov-09 23:31N 45°24' W 073°45'713.1
2017-Nov-09 23:00N 45°21' W 073°53'3 5.1
2017-Nov-09 22:31N 45°19' W 073°55'1 1.7
2017-Nov-09 22:00N 45°18' W 073°56'1 1.3
2017-Nov-09 21:30N 45°18' W 073°56'3 5.4
2017-Nov-09 20:56N 45°15' W 073°58'5 6.9
2017-Nov-09 20:13N 45°13' W 074°05'  
2017-Nov-07 07:04N 45°13' W 074°04'1 7.0
2017-Nov-07 07:00N 45°13' W 074°03'4 8.5
2017-Nov-07 06:30N 45°15' W 073°58'3 6.9
2017-Nov-07 06:00N 45°18' W 073°56'0 0.4
2017-Nov-07 05:31N 45°18' W 073°55'1 1.3
2017-Nov-07 05:00N 45°19' W 073°55'0 0.9
2017-Nov-07 04:30N 45°19' W 073°55'0 0.7
2017-Nov-07 04:00N 45°20' W 073°55'2 3.9
2017-Nov-07 03:30N 45°21' W 073°52'3 6.1
2017-Nov-07 03:00N 45°23' W 073°49'4 7.1
2017-Nov-07 02:30N 45°24' W 073°44'3 6.9
2017-Nov-07 02:00N 45°25' W 073°39'3 5.3
2017-Nov-07 01:27N 45°24' W 073°35'3 2.3
2017-Nov-07 00:21N 45°25' W 073°32'3 6.6
2017-Nov-06 23:56N 45°27' W 073°30'  

Dump ship's entire track history